Time;durP1;ratioP1;P1;durP2;ratioP2;P2;SDS_P1;SDS_P2;PMS_P1;PMS_P2;Temp;Humidity;BMP_temperature;BMP_pressure;BME280_temperature;BME280_humidity;BME280_pressure;Samples;Min_cycle;Max_cycle;Signal;HPM_P1;HPM_P2
2022/03/30 00:01:02;;;;;;;43.55;18.52;;;;;;;;;;4986788;28;20105;-69
2022/03/30 00:03:27;;;;;;;44.53;19.20;;;;;;;;;;4988152;28;20418;-70
2022/03/30 00:05:53;;;;;;;41.58;19.25;;;;;;;;;;4978524;28;20086;-69
2022/03/30 00:08:18;;;;;;;38.95;18.83;;;;;;;;;;4997871;28;20030;-70
2022/03/30 00:10:44;;;;;;;42.47;19.42;;;;;;;;;;4996351;28;20069;-69
2022/03/30 00:13:10;;;;;;;40.50;19.33;;;;;;;;;;4999204;28;20085;-69
2022/03/30 00:15:35;;;;;;;43.83;19.55;;;;;;;;;;4996450;28;20034;-69
2022/03/30 00:18:01;;;;;;;46.55;19.40;;;;;;;;;;4995614;28;20060;-70
2022/03/30 00:20:26;;;;;;;45.25;20.30;;;;;;;;;;5000486;28;20033;-72
2022/03/30 00:22:51;;;;;;;43.05;19.02;;;;;;;;;;5004967;28;20191;-69
2022/03/30 00:25:17;;;;;;;43.50;18.85;;;;;;;;;;5003548;28;20036;-76
2022/03/30 00:27:43;;;;;;;42.78;18.83;;;;;;;;;;4997987;28;20034;-70
2022/03/30 00:30:11;;;;;;;44.88;19.48;;;;;;;;;;5003162;28;20035;-69
2022/03/30 00:32:37;;;;;;;44.33;19.05;;;;;;;;;;5004451;28;20061;-72
2022/03/30 00:35:03;;;;;;;41.97;19.58;;;;;;;;;;5004408;28;20026;-69
2022/03/30 00:37:28;;;;;;;41.03;19.13;;;;;;;;;;5004650;28;20037;-72
2022/03/30 00:39:53;;;;;;;45.17;19.73;;;;;;;;;;5004654;28;20230;-69
2022/03/30 00:42:21;;;;;;;41.70;19.38;;;;;;;;;;5036593;28;20026;-70
2022/03/30 00:44:47;;;;;;;41.65;19.90;;;;;;;;;;5004758;28;20038;-71
2022/03/30 00:47:18;;;;;;;41.78;19.50;;;;;;;;;;5004821;28;20082;-71
2022/03/30 00:49:44;;;;;;;39.20;19.40;;;;;;;;;;4998427;28;20033;-72
2022/03/30 00:52:09;;;;;;;39.65;20.63;;;;;;;;;;5004636;28;20037;-72
2022/03/30 00:54:37;;;;;;;48.03;20.48;;;;;;;;;;5004409;28;20030;-72
2022/03/30 00:57:05;;;;;;;41.30;20.17;;;;;;;;;;5004391;28;20038;-69
2022/03/30 00:59:32;;;;;;;46.90;20.25;;;;;;;;;;5003674;28;20049;-71
2022/03/30 01:01:59;;;;;;;41.78;20.08;;;;;;;;;;5001951;28;20368;-71
2022/03/30 01:04:26;;;;;;;42.22;20.83;;;;;;;;;;5003758;28;20349;-71
2022/03/30 01:06:52;;;;;;;46.58;20.88;;;;;;;;;;5004312;28;20026;-71
2022/03/30 01:09:17;;;;;;;50.80;21.83;;;;;;;;;;5003696;28;20318;-73
2022/03/30 01:11:43;;;;;;;51.38;22.65;;;;;;;;;;5004147;28;20026;-71
2022/03/30 01:14:10;;;;;;;48.88;22.27;;;;;;;;;;5003823;28;20018;-72
2022/03/30 01:16:35;;;;;;;51.30;21.63;;;;;;;;;;5003775;28;20096;-71
2022/03/30 01:19:06;;;;;;;48.08;21.17;;;;;;;;;;5003740;28;20310;-71
2022/03/30 01:21:31;;;;;;;41.13;20.63;;;;;;;;;;5003611;28;20060;-72
2022/03/30 01:23:57;;;;;;;46.90;21.00;;;;;;;;;;5003797;28;20034;-72
2022/03/30 01:26:23;;;;;;;43.05;20.60;;;;;;;;;;5003835;28;20055;-72
2022/03/30 01:28:49;;;;;;;47.70;22.52;;;;;;;;;;5003547;28;20030;-73
2022/03/30 01:33:59;;;;;;;45.22;23.35;;;;;;;;;;5003689;28;20100;-72
2022/03/30 01:36:25;;;;;;;43.83;22.25;;;;;;;;;;5003654;28;20346;-71
2022/03/30 01:38:51;;;;;;;43.95;21.30;;;;;;;;;;5003692;28;20334;-72
2022/03/30 01:41:16;;;;;;;48.03;21.42;;;;;;;;;;5004703;28;20026;-72
2022/03/30 01:43:42;;;;;;;44.90;21.17;;;;;;;;;;5003624;28;20052;-71
2022/03/30 01:46:07;;;;;;;45.05;20.70;;;;;;;;;;4997687;28;20022;-70
2022/03/30 01:48:32;;;;;;;41.42;20.80;;;;;;;;;;5002762;28;20315;-70
2022/03/30 01:50:59;;;;;;;49.80;22.00;;;;;;;;;;5012933;28;20211;-71
2022/03/30 01:53:25;;;;;;;50.05;21.42;;;;;;;;;;5003611;28;20338;-71
2022/03/30 01:55:51;;;;;;;54.75;21.10;;;;;;;;;;5006063;28;20117;-70
2022/03/30 01:58:17;;;;;;;45.10;21.20;;;;;;;;;;5003572;28;20062;-71
2022/03/30 02:00:43;;;;;;;48.15;21.10;;;;;;;;;;5003586;28;20110;-71
2022/03/30 02:03:08;;;;;;;43.83;21.15;;;;;;;;;;5004165;28;20318;-71
2022/03/30 02:05:34;;;;;;;49.00;21.70;;;;;;;;;;5004201;28;20101;-71
2022/03/30 02:07:59;;;;;;;50.25;22.00;;;;;;;;;;5002179;28;20030;-71
2022/03/30 02:10:24;;;;;;;49.88;21.10;;;;;;;;;;5005047;28;20034;-71
2022/03/30 02:12:50;;;;;;;46.17;21.38;;;;;;;;;;5002755;28;20029;-70
2022/03/30 02:15:15;;;;;;;49.20;21.70;;;;;;;;;;5008506;28;20032;-70
2022/03/30 02:17:41;;;;;;;46.58;21.35;;;;;;;;;;4996981;28;20037;-70
2022/03/30 02:20:08;;;;;;;43.55;20.38;;;;;;;;;;4992572;28;20180;-71
2022/03/30 02:22:34;;;;;;;43.38;21.23;;;;;;;;;;5002392;28;20425;-71
2022/03/30 02:24:59;;;;;;;47.08;21.48;;;;;;;;;;5006470;28;20030;-70
2022/03/30 02:27:24;;;;;;;41.45;20.48;;;;;;;;;;5003762;28;20018;-71
2022/03/30 02:29:52;;;;;;;42.75;21.20;;;;;;;;;;5002709;28;20057;-69
2022/03/30 02:32:18;;;;;;;40.28;20.52;;;;;;;;;;5002446;28;20033;-70
2022/03/30 02:34:47;;;;;;;48.50;21.35;;;;;;;;;;5003975;28;20022;-71
2022/03/30 02:37:13;;;;;;;42.88;21.23;;;;;;;;;;5004530;28;20094;-71
2022/03/30 02:39:39;;;;;;;44.63;21.38;;;;;;;;;;5003882;28;20046;-71
2022/03/30 02:42:07;;;;;;;46.13;21.80;;;;;;;;;;5002597;28;20065;-71
2022/03/30 02:44:33;;;;;;;49.88;22.10;;;;;;;;;;5010385;28;20057;-71
2022/03/30 02:46:58;;;;;;;48.00;21.70;;;;;;;;;;5002654;28;20041;-71
2022/03/30 02:49:25;;;;;;;43.33;21.10;;;;;;;;;;4998082;28;20030;-71
2022/03/30 02:51:50;;;;;;;48.72;21.80;;;;;;;;;;4995986;28;20093;-71
2022/03/30 02:54:15;;;;;;;47.22;23.40;;;;;;;;;;5003468;28;20045;-71
2022/03/30 02:56:41;;;;;;;43.30;22.00;;;;;;;;;;5005660;28;20077;-71
2022/03/30 02:59:06;;;;;;;47.97;21.85;;;;;;;;;;5001115;28;20219;-71
2022/03/30 03:01:32;;;;;;;49.63;22.08;;;;;;;;;;5002099;28;20058;-70
2022/03/30 03:03:57;;;;;;;49.45;22.85;;;;;;;;;;5002312;28;20041;-71
2022/03/30 03:06:23;;;;;;;49.30;22.60;;;;;;;;;;5002639;28;20034;-71
2022/03/30 03:08:49;;;;;;;48.15;22.65;;;;;;;;;;5002179;28;20153;-71
2022/03/30 03:11:14;;;;;;;46.70;21.90;;;;;;;;;;5001850;28;20044;-71
2022/03/30 03:13:39;;;;;;;50.47;22.58;;;;;;;;;;5001936;28;20310;-71
2022/03/30 03:16:05;;;;;;;48.03;22.13;;;;;;;;;;5001840;28;20026;-71
2022/03/30 03:18:30;;;;;;;44.55;21.35;;;;;;;;;;5002008;28;20117;-71
2022/03/30 03:20:56;;;;;;;47.13;22.85;;;;;;;;;;5004977;28;20038;-70
2022/03/30 03:23:22;;;;;;;42.50;21.60;;;;;;;;;;5001602;28;20274;-73
2022/03/30 03:25:47;;;;;;;49.97;24.02;;;;;;;;;;5006246;28;20445;-71
2022/03/30 03:28:13;;;;;;;51.00;24.88;;;;;;;;;;5001849;28;20110;-70
2022/03/30 03:30:40;;;;;;;47.47;24.45;;;;;;;;;;5001850;28;20026;-70
2022/03/30 03:33:07;;;;;;;54.10;24.65;;;;;;;;;;5001711;28;20026;-70
2022/03/30 03:35:32;;;;;;;53.92;25.92;;;;;;;;;;5005703;28;20028;-70
2022/03/30 03:37:58;;;;;;;46.50;23.75;;;;;;;;;;5000441;28;20101;-71
2022/03/30 03:40:24;;;;;;;51.45;25.23;;;;;;;;;;5005669;28;20110;-71
2022/03/30 03:42:50;;;;;;;50.15;24.50;;;;;;;;;;5002710;28;20034;-71
2022/03/30 03:45:17;;;;;;;52.30;23.75;;;;;;;;;;5002030;28;20348;-70
2022/03/30 03:47:43;;;;;;;50.92;25.50;;;;;;;;;;5001458;28;20334;-71
2022/03/30 03:50:10;;;;;;;48.83;24.60;;;;;;;;;;5001454;28;20034;-71
2022/03/30 03:52:36;;;;;;;51.22;24.58;;;;;;;;;;5003698;28;20057;-70
2022/03/30 03:55:03;;;;;;;56.38;25.17;;;;;;;;;;5008931;28;20042;-71
2022/03/30 03:57:29;;;;;;;60.67;26.15;;;;;;;;;;5001161;28;20221;-72
2022/03/30 03:59:55;;;;;;;59.78;26.20;;;;;;;;;;5001583;28;20034;-72
2022/03/30 04:02:21;;;;;;;54.03;26.48;;;;;;;;;;5001539;28;20033;-71
2022/03/30 04:04:46;;;;;;;52.70;24.85;;;;;;;;;;5006824;28;20503;-71
2022/03/30 04:07:12;;;;;;;54.35;25.08;;;;;;;;;;5001454;28;20317;-72
2022/03/30 04:09:38;;;;;;;56.00;25.52;;;;;;;;;;5001665;28;20026;-71
2022/03/30 04:12:04;;;;;;;53.97;25.00;;;;;;;;;;5001338;28;20031;-71
2022/03/30 04:14:30;;;;;;;52.78;25.88;;;;;;;;;;5005248;28;20120;-71
2022/03/30 04:16:55;;;;;;;53.38;25.27;;;;;;;;;;5001276;28;20410;-71
2022/03/30 04:19:21;;;;;;;53.92;26.42;;;;;;;;;;5001352;28;20030;-71
2022/03/30 04:21:46;;;;;;;57.42;26.25;;;;;;;;;;5001169;28;20026;-71
2022/03/30 04:24:12;;;;;;;52.30;25.42;;;;;;;;;;5003118;28;20030;-72
2022/03/30 04:26:38;;;;;;;57.05;25.58;;;;;;;;;;5001827;28;20042;-70
2022/03/30 04:29:05;;;;;;;53.10;25.92;;;;;;;;;;5001126;28;20089;-70
2022/03/30 04:31:30;;;;;;;52.17;25.02;;;;;;;;;;5001180;28;20030;-71
2022/03/30 04:33:56;;;;;;;53.38;25.23;;;;;;;;;;5000933;28;20054;-71
2022/03/30 04:36:21;;;;;;;55.40;26.15;;;;;;;;;;5002030;28;20054;-70
2022/03/30 04:38:47;;;;;;;60.80;27.08;;;;;;;;;;5008824;28;20199;-70
2022/03/30 04:41:12;;;;;;;53.15;26.27;;;;;;;;;;5003523;28;20030;-70
2022/03/30 04:43:38;;;;;;;64.60;28.45;;;;;;;;;;4998775;28;20038;-70
2022/03/30 04:46:05;;;;;;;57.70;26.98;;;;;;;;;;4992397;28;20220;-69
2022/03/30 04:48:31;;;;;;;56.42;27.80;;;;;;;;;;5001155;28;20230;-70
2022/03/30 04:50:57;;;;;;;60.25;26.55;;;;;;;;;;5004174;28;20042;-70
2022/03/30 04:53:22;;;;;;;53.90;25.92;;;;;;;;;;5000548;28;20049;-69
2022/03/30 04:55:47;;;;;;;51.90;25.80;;;;;;;;;;5003942;28;20026;-70
2022/03/30 04:58:13;;;;;;;56.85;26.90;;;;;;;;;;5004348;28;20029;-69
2022/03/30 05:00:38;;;;;;;69.10;27.98;;;;;;;;;;5007083;28;20223;-69
2022/03/30 05:03:04;;;;;;;59.08;27.42;;;;;;;;;;5004150;28;20030;-70
2022/03/30 05:05:29;;;;;;;55.10;26.67;;;;;;;;;;5009918;28;20031;-69
2022/03/30 05:07:55;;;;;;;52.50;26.35;;;;;;;;;;5004791;28;20058;-69
2022/03/30 05:10:20;;;;;;;57.05;26.42;;;;;;;;;;5004185;28;20022;-69
2022/03/30 05:12:46;;;;;;;58.78;28.30;;;;;;;;;;5003657;28;20026;-68
2022/03/30 05:15:12;;;;;;;69.00;28.63;;;;;;;;;;5004029;28;20021;-69
2022/03/30 05:17:39;;;;;;;65.28;28.90;;;;;;;;;;5004759;28;20030;-70
2022/03/30 05:20:06;;;;;;;63.95;27.38;;;;;;;;;;5003724;28;20215;-69
2022/03/30 05:22:33;;;;;;;67.47;27.83;;;;;;;;;;5003963;28;20069;-69
2022/03/30 05:24:59;;;;;;;63.60;28.63;;;;;;;;;;5004132;28;20033;-68
2022/03/30 05:27:25;;;;;;;64.07;28.52;;;;;;;;;;5005296;28;20061;-68
2022/03/30 05:29:51;;;;;;;58.67;28.13;;;;;;;;;;5003630;28;20080;-69
2022/03/30 05:32:16;;;;;;;59.03;27.55;;;;;;;;;;5003531;28;20031;-68
2022/03/30 05:34:41;;;;;;;66.85;29.05;;;;;;;;;;5003993;28;20038;-70
2022/03/30 05:37:08;;;;;;;69.68;29.67;;;;;;;;;;5003813;28;20034;-70
2022/03/30 05:39:35;;;;;;;66.15;30.65;;;;;;;;;;5005490;28;20050;-71
2022/03/30 05:42:01;;;;;;;73.20;30.10;;;;;;;;;;5003572;28;20030;-70
2022/03/30 05:44:26;;;;;;;62.97;29.35;;;;;;;;;;5007682;28;20021;-70
2022/03/30 05:46:52;;;;;;;66.93;29.60;;;;;;;;;;5004573;28;20274;-71
2022/03/30 05:49:17;;;;;;;66.47;29.88;;;;;;;;;;5003708;28;20018;-70
2022/03/30 05:51:43;;;;;;;69.60;29.88;;;;;;;;;;5002887;28;20341;-71
2022/03/30 05:54:08;;;;;;;61.78;28.52;;;;;;;;;;5004246;28;20026;-71
2022/03/30 05:59:17;;;;;;;61.92;29.55;;;;;;;;;;5000214;28;20037;-71
2022/03/30 06:01:43;;;;;;;63.92;28.20;;;;;;;;;;5003297;28;20026;-71
2022/03/30 06:04:08;;;;;;;62.08;28.10;;;;;;;;;;5003567;28;20046;-71
2022/03/30 06:06:34;;;;;;;63.05;28.10;;;;;;;;;;5006884;28;20025;-70
2022/03/30 06:09:00;;;;;;;57.78;28.42;;;;;;;;;;5002545;28;20065;-72
2022/03/30 06:11:25;;;;;;;67.78;28.98;;;;;;;;;;5002974;28;20085;-72
2022/03/30 06:13:50;;;;;;;70.10;30.08;;;;;;;;;;5001766;28;20310;-71
2022/03/30 06:16:16;;;;;;;64.07;29.55;;;;;;;;;;5006726;28;20036;-71
2022/03/30 06:18:43;;;;;;;65.38;28.63;;;;;;;;;;5002461;28;20081;-71
2022/03/30 06:21:09;;;;;;;63.58;30.10;;;;;;;;;;5002460;28;20026;-70
2022/03/30 06:23:35;;;;;;;75.65;31.65;;;;;;;;;;5002440;28;20030;-71
2022/03/30 06:26:01;;;;;;;68.28;30.67;;;;;;;;;;5002545;28;20057;-71
2022/03/30 06:28:29;;;;;;;69.32;30.63;;;;;;;;;;5002236;28;20192;-71
2022/03/30 06:30:55;;;;;;;70.45;31.35;;;;;;;;;;4996411;28;20245;-71
2022/03/30 06:33:20;;;;;;;72.80;31.63;;;;;;;;;;5002220;28;20086;-71
2022/03/30 06:35:46;;;;;;;66.28;30.33;;;;;;;;;;5001690;28;20227;-71
2022/03/30 06:38:12;;;;;;;80.13;31.30;;;;;;;;;;5010029;28;20189;-71
2022/03/30 06:40:37;;;;;;;64.40;28.45;;;;;;;;;;5003323;28;20053;-70
2022/03/30 06:43:02;;;;;;;72.53;29.92;;;;;;;;;;5002086;28;20041;-70
2022/03/30 06:45:28;;;;;;;69.40;29.58;;;;;;;;;;5006196;28;20306;-71
2022/03/30 06:47:53;;;;;;;68.60;29.92;;;;;;;;;;5004948;28;20037;-70
2022/03/30 06:50:20;;;;;;;70.00;30.20;;;;;;;;;;5002431;28;20018;-71
2022/03/30 06:52:48;;;;;;;71.72;28.85;;;;;;;;;;5001917;28;20102;-70
2022/03/30 06:55:14;;;;;;;66.30;28.75;;;;;;;;;;5004881;28;20034;-70
2022/03/30 06:57:41;;;;;;;62.63;29.48;;;;;;;;;;5001935;28;20101;-70
2022/03/30 07:00:07;;;;;;;67.80;29.60;;;;;;;;;;5004326;28;20038;-70
2022/03/30 07:02:32;;;;;;;69.03;30.27;;;;;;;;;;5004865;28;20055;-70
2022/03/30 07:04:57;;;;;;;73.35;30.65;;;;;;;;;;5003184;28;20057;-70
2022/03/30 07:10:16;;;;;;;64.97;30.08;;;;;;;;;;5002799;28;20041;-70
2022/03/30 07:12:46;;;;;;;71.90;29.80;;;;;;;;;;5001719;28;20042;-71
2022/03/30 07:15:13;;;;;;;62.63;29.35;;;;;;;;;;5002125;28;20041;-70
2022/03/30 07:17:52;;;;;;;69.22;30.77;;;;;;;;;;5001182;28;20046;-70
2022/03/30 07:20:19;;;;;;;67.28;30.13;;;;;;;;;;4995567;28;20374;-71
2022/03/30 07:22:47;;;;;;;70.53;32.05;;;;;;;;;;4995815;28;20026;-71
2022/03/30 07:25:14;;;;;;;69.90;31.23;;;;;;;;;;4997863;28;20246;-71
2022/03/30 07:27:47;;;;;;;69.82;30.95;;;;;;;;;;5001519;28;20057;-73
2022/03/30 07:30:14;;;;;;;65.53;31.27;;;;;;;;;;4996010;28;20034;-70
2022/03/30 07:32:42;;;;;;;74.35;30.20;;;;;;;;;;5000365;28;20038;-71
2022/03/30 07:35:09;;;;;;;69.07;31.27;;;;;;;;;;5001091;28;20026;-73
2022/03/30 07:37:35;;;;;;;72.90;32.28;;;;;;;;;;5001913;28;20030;-70
2022/03/30 07:40:02;;;;;;;77.53;32.28;;;;;;;;;;4995324;28;20057;-70
2022/03/30 07:42:27;;;;;;;74.53;31.67;;;;;;;;;;5004924;28;20075;-70
2022/03/30 07:44:52;;;;;;;73.93;32.38;;;;;;;;;;5001370;28;20050;-70
2022/03/30 07:47:18;;;;;;;75.15;31.63;;;;;;;;;;5001400;28;20288;-69
2022/03/30 07:49:44;;;;;;;68.03;32.60;;;;;;;;;;5001042;28;20064;-69
2022/03/30 07:52:09;;;;;;;71.13;32.10;;;;;;;;;;5005474;28;20045;-69
2022/03/30 07:54:34;;;;;;;84.30;34.42;;;;;;;;;;5002779;28;20030;-69
2022/03/30 07:57:00;;;;;;;87.15;34.50;;;;;;;;;;5005107;28;20033;-70
2022/03/30 07:59:25;;;;;;;79.63;33.20;;;;;;;;;;5001457;28;20026;-73
2022/03/30 08:01:52;;;;;;;85.10;33.67;;;;;;;;;;4999747;28;20153;-69
2022/03/30 08:04:17;;;;;;;76.13;33.33;;;;;;;;;;5000781;28;20034;-71
2022/03/30 08:06:43;;;;;;;84.20;34.08;;;;;;;;;;5001199;28;20069;-69
2022/03/30 08:09:08;;;;;;;78.20;33.83;;;;;;;;;;4994824;28;20060;-69
2022/03/30 08:11:34;;;;;;;82.18;34.00;;;;;;;;;;5002910;28;20080;-69
2022/03/30 08:14:00;;;;;;;79.13;34.10;;;;;;;;;;5000974;28;20022;-69
2022/03/30 08:16:25;;;;;;;77.18;32.53;;;;;;;;;;5003400;28;20088;-70
2022/03/30 08:18:50;;;;;;;76.70;33.67;;;;;;;;;;5001074;28;20045;-69
2022/03/30 08:24:02;;;;;;;73.85;33.58;;;;;;;;;;5005408;28;20053;-69
2022/03/30 08:26:28;;;;;;;78.40;32.53;;;;;;;;;;5002271;28;20030;-69
2022/03/30 08:28:54;;;;;;;84.60;35.25;;;;;;;;;;5006051;28;20083;-70
2022/03/30 08:31:20;;;;;;;76.93;34.00;;;;;;;;;;5007322;28;20349;-70
2022/03/30 08:33:45;;;;;;;85.78;35.83;;;;;;;;;;5004511;28;20026;-70
2022/03/30 08:36:11;;;;;;;80.68;35.35;;;;;;;;;;5006643;28;20037;-69
2022/03/30 08:38:37;;;;;;;77.53;34.45;;;;;;;;;;5009154;28;20050;-70
2022/03/30 08:41:02;;;;;;;76.70;34.25;;;;;;;;;;5004770;28;20385;-70
2022/03/30 08:43:29;;;;;;;75.60;33.95;;;;;;;;;;5004469;28;20031;-70
2022/03/30 08:45:57;;;;;;;79.18;34.13;;;;;;;;;;5004755;28;20038;-69
2022/03/30 08:48:22;;;;;;;90.88;36.22;;;;;;;;;;5004675;28;20258;-69
2022/03/30 08:50:50;;;;;;;88.40;36.75;;;;;;;;;;5004530;28;20029;-69
2022/03/30 08:53:16;;;;;;;86.18;37.35;;;;;;;;;;5004133;28;20018;-74
2022/03/30 08:55:41;;;;;;;81.28;36.83;;;;;;;;;;5004885;28;20258;-69
2022/03/30 08:58:07;;;;;;;88.70;35.40;;;;;;;;;;5006743;28;20368;-69
2022/03/30 09:00:34;;;;;;;84.18;36.38;;;;;;;;;;5004745;28;20026;-69
2022/03/30 09:03:01;;;;;;;87.93;37.60;;;;;;;;;;5005236;28;20030;-69
2022/03/30 09:05:28;;;;;;;90.53;37.63;;;;;;;;;;5009996;28;20106;-69
2022/03/30 09:08:15;;;;;;;87.43;38.13;;;;;;;;;;5008893;28;20069;-69
2022/03/30 09:10:43;;;;;;;86.13;36.33;;;;;;;;;;5015931;28;20038;-69
2022/03/30 09:13:09;;;;;;;93.65;37.90;;;;;;;;;;5004178;28;20045;-69
2022/03/30 09:15:35;;;;;;;105.72;39.85;;;;;;;;;;5008245;28;20332;-69
2022/03/30 09:18:03;;;;;;;96.38;38.88;;;;;;;;;;5003953;28;20219;-69
2022/03/30 09:20:29;;;;;;;101.95;39.00;;;;;;;;;;5003405;28;20030;-69
2022/03/30 09:22:56;;;;;;;83.30;37.83;;;;;;;;;;5004343;28;20072;-69
2022/03/30 09:25:26;;;;;;;98.18;38.95;;;;;;;;;;5006866;28;20050;-69
2022/03/30 09:27:54;;;;;;;100.97;40.53;;;;;;;;;;5003998;28;20377;-68
2022/03/30 09:30:21;;;;;;;105.03;41.08;;;;;;;;;;5009204;28;20322;-68
2022/03/30 09:32:48;;;;;;;96.55;39.80;;;;;;;;;;5005022;28;20095;-68
2022/03/30 09:35:37;;;;;;;103.00;41.30;;;;;;;;;;5003767;28;20170;-68
2022/03/30 09:38:08;;;;;;;104.97;41.10;;;;;;;;;;5006410;28;20030;-69
2022/03/30 09:40:37;;;;;;;96.90;39.33;;;;;;;;;;5006155;28;20053;-68
2022/03/30 09:43:14;;;;;;;100.43;39.70;;;;;;;;;;5003636;28;20089;-68
2022/03/30 09:45:40;;;;;;;110.35;40.78;;;;;;;;;;5003800;28;20070;-68
2022/03/30 09:48:11;;;;;;;106.35;40.30;;;;;;;;;;5003442;28;20376;-69
2022/03/30 09:50:42;;;;;;;100.18;40.10;;;;;;;;;;5008338;28;20034;-68
2022/03/30 09:53:13;;;;;;;97.30;39.33;;;;;;;;;;5003634;28;20026;-68
2022/03/30 09:55:54;;;;;;;109.22;40.38;;;;;;;;;;5003279;28;20270;-68
2022/03/30 09:58:21;;;;;;;104.03;39.70;;;;;;;;;;4998358;28;20038;-68
2022/03/30 10:01:06;;;;;;;99.13;39.53;;;;;;;;;;5003623;28;20030;-68
2022/03/30 10:03:44;;;;;;;110.57;41.58;;;;;;;;;;5008944;28;20029;-68
2022/03/30 10:06:15;;;;;;;111.47;40.97;;;;;;;;;;5002185;28;20276;-68
2022/03/30 10:08:42;;;;;;;98.28;41.25;;;;;;;;;;5006084;28;20038;-69
2022/03/30 10:11:10;;;;;;;109.93;40.65;;;;;;;;;;4998917;28;20025;-68
2022/03/30 10:13:37;;;;;;;109.00;40.90;;;;;;;;;;4999857;28;20026;-69
2022/03/30 10:16:05;;;;;;;101.05;42.00;;;;;;;;;;5001586;28;20030;-68
2022/03/30 10:18:32;;;;;;;110.85;43.08;;;;;;;;;;5003127;28;20030;-68
2022/03/30 10:21:15;;;;;;;110.30;44.10;;;;;;;;;;5002724;28;20045;-68
2022/03/30 10:24:05;;;;;;;102.78;41.63;;;;;;;;;;4997830;28;20033;-70
2022/03/30 10:27:16;;;;;;;105.80;41.67;;;;;;;;;;4998347;28;20219;-70
2022/03/30 10:29:54;;;;;;;110.28;42.25;;;;;;;;;;4960829;28;20327;-68
2022/03/30 10:32:21;;;;;;;123.38;43.53;;;;;;;;;;5000413;28;20313;-69
2022/03/30 10:34:53;;;;;;;114.35;42.22;;;;;;;;;;4996691;28;20313;-68
2022/03/30 10:37:27;;;;;;;103.93;41.03;;;;;;;;;;4989386;28;20037;-69
2022/03/30 10:39:54;;;;;;;103.03;40.95;;;;;;;;;;4986119;28;20233;-68
2022/03/30 10:42:20;;;;;;;106.25;41.33;;;;;;;;;;5005509;28;20231;-68
2022/03/30 10:44:47;;;;;;;111.97;41.75;;;;;;;;;;4990949;28;20130;-69
2022/03/30 10:47:23;;;;;;;103.47;41.47;;;;;;;;;;4988708;28;20042;-68
2022/03/30 10:49:51;;;;;;;98.85;38.90;;;;;;;;;;4988401;28;20025;-68
2022/03/30 10:52:25;;;;;;;102.18;40.25;;;;;;;;;;4986376;28;20050;-68
2022/03/30 10:54:55;;;;;;;106.20;39.95;;;;;;;;;;4989767;28;20269;-68
2022/03/30 10:57:42;;;;;;;105.38;40.67;;;;;;;;;;4986531;28;20100;-68
2022/03/30 11:00:17;;;;;;;106.97;42.00;;;;;;;;;;4998450;28;20089;-68
2022/03/30 11:02:42;;;;;;;103.13;40.78;;;;;;;;;;4998423;28;20061;-68
2022/03/30 11:05:09;;;;;;;103.57;41.55;;;;;;;;;;4995931;28;20065;-68
2022/03/30 11:07:34;;;;;;;96.57;39.67;;;;;;;;;;4998019;28;20057;-67
2022/03/30 11:10:20;;;;;;;100.68;39.80;;;;;;;;;;5025328;28;20026;-68
2022/03/30 11:13:24;;;;;;;89.18;37.90;;;;;;;;;;4999717;28;20092;-67
2022/03/30 11:16:07;;;;;;;103.13;41.28;;;;;;;;;;4997738;28;20030;-68
2022/03/30 11:18:33;;;;;;;94.47;37.67;;;;;;;;;;5003471;28;20034;-68
2022/03/30 11:21:15;;;;;;;100.35;38.63;;;;;;;;;;5001787;28;20026;-67
2022/03/30 11:24:06;;;;;;;96.75;38.80;;;;;;;;;;4995542;28;20207;-68
2022/03/30 11:26:52;;;;;;;94.28;37.65;;;;;;;;;;4997938;28;20044;-69
2022/03/30 11:32:22;;;;;;;105.97;39.03;;;;;;;;;;4996518;28;20245;-72
2022/03/30 11:34:54;;;;;;;95.68;38.78;;;;;;;;;;4999843;28;20097;-69
2022/03/30 11:37:28;;;;;;;100.88;39.95;;;;;;;;;;5001434;28;20034;-69
2022/03/30 11:40:05;;;;;;;93.43;38.17;;;;;;;;;;5001198;28;20038;-69
2022/03/30 11:42:31;;;;;;;98.30;38.05;;;;;;;;;;4996569;28;20231;-69
2022/03/30 11:45:12;;;;;;;96.93;35.30;;;;;;;;;;4999248;28;20026;-69
2022/03/30 11:47:43;;;;;;;90.15;35.85;;;;;;;;;;4999596;28;20076;-69
2022/03/30 11:50:09;;;;;;;92.50;35.58;;;;;;;;;;4996522;28;20018;-69
2022/03/30 11:52:34;;;;;;;80.63;33.85;;;;;;;;;;5001065;28;20057;-69
2022/03/30 11:55:00;;;;;;;71.80;33.83;;;;;;;;;;5001373;28;20202;-69
2022/03/30 11:57:25;;;;;;;76.22;34.38;;;;;;;;;;5000128;28;20180;-69
2022/03/30 11:59:56;;;;;;;77.93;33.13;;;;;;;;;;5003839;28;20057;-70
2022/03/30 12:02:22;;;;;;;75.18;32.58;;;;;;;;;;4989792;28;20330;-69
2022/03/30 12:04:48;;;;;;;77.25;32.17;;;;;;;;;;5002979;28;20038;-70
2022/03/30 12:07:14;;;;;;;75.22;33.85;;;;;;;;;;4999165;28;20037;-70
2022/03/30 12:09:47;;;;;;;66.38;30.75;;;;;;;;;;5005701;28;20096;-69
2022/03/30 12:12:24;;;;;;;69.38;31.83;;;;;;;;;;5001562;28;20333;-70
2022/03/30 12:14:57;;;;;;;82.60;33.85;;;;;;;;;;5000528;28;20026;-70
2022/03/30 12:17:24;;;;;;;67.35;30.45;;;;;;;;;;5004496;28;20099;-69
2022/03/30 12:19:52;;;;;;;71.40;29.50;;;;;;;;;;5003215;28;20137;-69
2022/03/30 12:22:18;;;;;;;71.50;32.38;;;;;;;;;;5005306;28;20076;-69
2022/03/30 12:24:43;;;;;;;71.05;31.92;;;;;;;;;;4998065;28;20038;-70
2022/03/30 12:27:09;;;;;;;63.28;31.02;;;;;;;;;;4997810;28;20030;-70
2022/03/30 12:29:37;;;;;;;72.03;31.77;;;;;;;;;;4998477;28;20034;-70
2022/03/30 12:32:03;;;;;;;70.13;31.92;;;;;;;;;;5000408;28;20023;-70
2022/03/30 12:34:34;;;;;;;61.00;27.17;;;;;;;;;;5001279;28;20369;-70
2022/03/30 12:37:05;;;;;;;61.75;27.73;;;;;;;;;;5001723;28;20340;-70
2022/03/30 12:39:42;;;;;;;61.38;28.30;;;;;;;;;;5003562;28;20117;-69
2022/03/30 12:42:07;;;;;;;60.65;28.15;;;;;;;;;;5007340;28;20030;-69
2022/03/30 12:44:39;;;;;;;60.13;28.40;;;;;;;;;;5003653;28;20514;-69
2022/03/30 12:47:34;;;;;;;59.30;27.35;;;;;;;;;;5001649;28;20045;-69
2022/03/30 12:50:10;;;;;;;58.83;25.95;;;;;;;;;;4983473;28;20097;-69
2022/03/30 12:52:44;;;;;;;48.35;25.17;;;;;;;;;;4997704;28;20341;-70
2022/03/30 12:55:11;;;;;;;49.63;24.85;;;;;;;;;;5001370;28;20302;-69
2022/03/30 12:57:37;;;;;;;48.67;24.02;;;;;;;;;;5003015;28;20038;-69
2022/03/30 13:00:25;;;;;;;41.95;21.48;;;;;;;;;;5002997;28;20028;-70
2022/03/30 13:03:11;;;;;;;49.75;23.38;;;;;;;;;;5005295;28;20034;-69
2022/03/30 13:05:40;;;;;;;48.53;24.23;;;;;;;;;;4997007;28;20374;-70
2022/03/30 13:08:10;;;;;;;43.17;22.42;;;;;;;;;;4997957;28;20032;-70
2022/03/30 13:11:00;;;;;;;47.50;23.73;;;;;;;;;;4998177;28;20114;-69
2022/03/30 13:13:28;;;;;;;47.35;23.77;;;;;;;;;;5008497;28;20026;-70
2022/03/30 13:16:17;;;;;;;49.20;22.75;;;;;;;;;;5003441;28;20337;-70
2022/03/30 13:18:43;;;;;;;51.30;24.52;;;;;;;;;;5003269;28;20465;-69
2022/03/30 13:21:15;;;;;;;47.60;24.50;;;;;;;;;;5008751;28;20033;-70
2022/03/30 13:23:47;;;;;;;47.22;21.75;;;;;;;;;;5005231;28;20029;-70
2022/03/30 13:26:30;;;;;;;44.88;21.25;;;;;;;;;;4998275;28;20026;-70
2022/03/30 13:28:57;;;;;;;40.22;18.20;;;;;;;;;;5010406;28;20033;-69
2022/03/30 13:31:23;;;;;;;39.90;20.13;;;;;;;;;;5000993;28;20026;-69
2022/03/30 13:33:50;;;;;;;40.10;20.17;;;;;;;;;;5003631;28;20317;-70
2022/03/30 13:36:15;;;;;;;37.78;19.02;;;;;;;;;;5008011;28;20121;-69
2022/03/30 13:38:44;;;;;;;39.08;19.70;;;;;;;;;;5007927;28;20041;-69
2022/03/30 13:41:09;;;;;;;38.75;19.05;;;;;;;;;;5003231;28;20038;-70
2022/03/30 13:43:35;;;;;;;37.20;19.17;;;;;;;;;;5028575;28;20045;-69
2022/03/30 13:46:00;;;;;;;39.63;20.00;;;;;;;;;;5010498;28;20333;-73
2022/03/30 13:48:26;;;;;;;37.20;19.60;;;;;;;;;;5003020;28;20030;-70
2022/03/30 13:50:51;;;;;;;46.40;20.08;;;;;;;;;;5002804;28;20389;-69
2022/03/30 13:53:17;;;;;;;45.00;21.73;;;;;;;;;;5004429;28;20026;-69
2022/03/30 13:55:42;;;;;;;43.92;21.75;;;;;;;;;;5005803;28;20037;-72
2022/03/30 13:58:08;;;;;;;47.13;22.63;;;;;;;;;;5002974;28;20030;-69
2022/03/30 14:00:36;;;;;;;42.88;21.17;;;;;;;;;;4999588;28;20022;-70
2022/03/30 14:03:02;;;;;;;46.67;22.08;;;;;;;;;;5002962;28;20028;-70
2022/03/30 14:05:27;;;;;;;45.00;22.20;;;;;;;;;;5000318;28;20050;-70
2022/03/30 14:07:56;;;;;;;50.35;22.65;;;;;;;;;;4999598;28;20057;-69
2022/03/30 14:10:22;;;;;;;54.45;23.73;;;;;;;;;;5001646;28;20025;-69
2022/03/30 14:12:47;;;;;;;57.88;24.05;;;;;;;;;;5002931;28;20519;-69
2022/03/30 14:15:13;;;;;;;51.72;23.67;;;;;;;;;;5002684;28;20022;-69
2022/03/30 14:17:39;;;;;;;46.42;18.65;;;;;;;;;;4997031;28;20040;-68
2022/03/30 14:20:06;;;;;;;37.58;16.90;;;;;;;;;;5003604;28;20254;-69
2022/03/30 14:22:31;;;;;;;35.10;14.73;;;;;;;;;;5009400;28;20089;-68
2022/03/30 14:24:56;;;;;;;32.95;15.00;;;;;;;;;;5001624;28;20423;-69
2022/03/30 14:27:22;;;;;;;30.10;15.18;;;;;;;;;;5001389;28;20073;-69
2022/03/30 14:29:48;;;;;;;44.40;18.67;;;;;;;;;;5002028;28;20041;-69
2022/03/30 14:32:13;;;;;;;48.70;18.08;;;;;;;;;;5001455;28;20062;-70
2022/03/30 14:34:38;;;;;;;39.50;17.02;;;;;;;;;;5002221;28;20041;-69
